createdAt,value
2018-09-18T00:00:28.642Z,33.31
2018-09-18T00:01:28.593Z,35.88
2018-09-18T00:02:28.547Z,37.02
2018-09-18T00:03:28.518Z,38.73
2018-09-18T00:04:28.473Z,40.45
2018-09-18T00:05:28.467Z,41.02
2018-09-18T00:06:28.401Z,42.16
2018-09-18T00:07:28.376Z,42.07
2018-09-18T00:08:28.335Z,39.21
2018-09-18T00:09:28.301Z,33.88
2018-09-18T00:10:28.267Z,32.74
2018-09-18T00:11:28.190Z,32.17
2018-09-18T00:12:28.165Z,31.50
2018-09-18T00:13:28.125Z,32.35
2018-09-18T00:14:28.122Z,34.07
2018-09-18T00:15:28.066Z,34.83
2018-09-18T00:16:27.989Z,39.19
2018-09-18T00:17:27.955Z,37.10
2018-09-18T00:18:27.938Z,36.91
2018-09-18T00:19:27.875Z,32.93
2018-09-18T00:20:27.856Z,32.06
2018-09-18T00:21:27.832Z,30.63
2018-09-18T00:22:27.773Z,31.68
2018-09-18T00:23:27.734Z,31.77
2018-09-18T00:24:27.680Z,29.49
2018-09-18T00:25:27.638Z,27.68
2018-09-18T00:26:27.641Z,26.06
2018-09-18T00:27:27.569Z,25.02
2018-09-18T00:28:27.526Z,27.01
2018-09-18T00:29:27.495Z,26.82
2018-09-18T00:30:27.480Z,26.74
2018-09-18T00:31:27.423Z,27.98
2018-09-18T00:32:27.376Z,29.12
2018-09-18T00:33:27.342Z,33.12
2018-09-18T00:34:27.298Z,34.72
2018-09-18T00:35:27.255Z,31.88
2018-09-18T00:36:27.211Z,33.29
2018-09-18T00:37:27.189Z,34.44
2018-09-18T00:38:27.176Z,34.63
2018-09-18T00:39:27.116Z,31.48
2018-09-18T00:40:27.060Z,29.77
2018-09-18T00:41:27.024Z,28.44
2018-09-18T00:42:26.989Z,30.25
2018-09-18T00:43:26.934Z,31.58
2018-09-18T00:44:26.896Z,32.34
2018-09-18T00:45:26.860Z,32.53
2018-09-18T00:46:26.848Z,32.15
2018-09-18T00:47:26.797Z,29.58
2018-09-18T00:48:26.760Z,25.49
2018-09-18T00:49:26.714Z,26.35
2018-09-18T00:50:26.692Z,26.92
2018-09-18T00:51:26.640Z,26.44
2018-09-18T00:52:26.647Z,25.49
2018-09-18T00:53:26.598Z,26.64
2018-09-18T00:54:26.541Z,28.34
2018-09-18T00:55:26.473Z,27.97
2018-09-18T00:56:26.478Z,26.06
2018-09-18T00:57:26.402Z,26.16
2018-09-18T00:58:26.355Z,24.54
2018-09-18T00:59:26.330Z,23.11
2018-09-18T01:00:26.303Z,25.21
2018-09-18T01:01:26.260Z,28.82
2018-09-18T01:02:26.185Z,29.20
2018-09-18T01:03:26.176Z,27.11
2018-09-18T01:04:26.124Z,28.92
2018-09-18T01:05:26.080Z,31.77
2018-09-18T01:06:26.035Z,28.16
2018-09-18T01:07:25.991Z,28.64
2018-09-18T01:08:25.983Z,31.77
2018-09-18T01:09:25.935Z,35.00
2018-09-18T01:10:25.884Z,37.95
2018-09-18T01:11:25.836Z,38.05
2018-09-18T01:12:25.794Z,36.43
2018-09-18T01:13:25.774Z,36.81
2018-09-18T01:14:25.720Z,36.24
2018-09-18T01:15:25.705Z,39.57
2018-09-18T01:16:25.641Z,35.38
2018-09-18T01:17:25.626Z,34.81
2018-09-18T01:18:25.591Z,29.77
2018-09-18T01:19:25.629Z,28.06
2018-09-18T01:20:25.485Z,29.68
2018-09-18T01:21:25.444Z,34.53
2018-09-18T01:22:25.400Z,36.62
2018-09-18T01:23:25.365Z,36.33
2018-09-18T01:24:25.362Z,34.15
2018-09-18T01:25:25.276Z,35.77
2018-09-18T01:26:25.270Z,31.87
2018-09-18T01:27:25.224Z,30.25
2018-09-18T01:28:25.175Z,31.29
2018-09-18T01:29:25.169Z,34.34
2018-09-18T01:30:25.092Z,36.33
2018-09-18T01:31:25.069Z,30.73
2018-09-18T01:32:25.030Z,25.96
2018-09-18T01:33:24.993Z,22.92
2018-09-18T01:34:24.964Z,21.21
2018-09-18T01:35:24.928Z,21.40
2018-09-18T01:36:24.868Z,22.06
2018-09-18T01:37:24.830Z,26.73
2018-09-18T01:38:24.787Z,30.54
2018-09-18T01:39:24.729Z,29.58
2018-09-18T01:40:24.712Z,29.20
2018-09-18T01:41:24.683Z,29.20
2018-09-18T01:42:24.615Z,34.72
2018-09-18T01:43:24.585Z,38.90
2018-09-18T01:44:24.558Z,36.05
2018-09-18T01:45:24.530Z,31.68
2018-09-18T01:46:24.494Z,28.16
2018-09-18T01:47:24.432Z,26.92
2018-09-18T01:48:24.395Z,26.44
2018-09-18T01:49:24.350Z,29.30
2018-09-18T01:50:24.307Z,30.15
2018-09-18T01:51:24.313Z,26.92
2018-09-18T01:52:24.229Z,30.54
2018-09-18T01:53:24.205Z,33.10
2018-09-18T01:54:24.144Z,34.34
2018-09-18T01:55:24.112Z,32.15
2018-09-18T01:56:24.097Z,29.86
2018-09-18T01:57:24.028Z,29.01
2018-09-18T01:58:24.007Z,28.92
2018-09-18T01:59:23.938Z,28.25
2018-09-18T02:00:23.916Z,28.72
2018-09-18T02:01:23.865Z,31.68
2018-09-18T02:02:23.854Z,33.01
2018-09-18T02:03:23.788Z,32.82
2018-09-18T02:04:23.765Z,34.05
2018-09-18T02:05:23.717Z,34.24
2018-09-18T02:06:23.679Z,33.01
2018-09-18T02:07:23.624Z,31.66
2018-09-18T02:08:23.612Z,31.87
2018-09-18T02:09:23.566Z,31.58
2018-09-18T02:10:23.504Z,29.20
2018-09-18T02:11:23.474Z,31.01
2018-09-18T02:12:23.458Z,30.90
2018-09-18T02:13:23.415Z,32.99
2018-09-18T02:14:23.397Z,32.70
2018-09-18T02:15:23.308Z,32.14
2018-09-18T02:16:23.270Z,33.75
2018-09-18T02:17:23.235Z,35.27
2018-09-18T02:18:23.197Z,36.22
2018-09-18T02:19:23.152Z,37.27
2018-09-18T02:20:23.148Z,33.94
2018-09-18T02:21:23.083Z,31.85
2018-09-18T02:22:23.074Z,26.90
2018-09-18T02:23:23.002Z,27.67
2018-09-18T02:24:22.967Z,28.23
2018-09-18T02:25:22.926Z,30.14
2018-09-18T02:26:22.890Z,30.52
2018-09-18T02:27:22.849Z,31.85
2018-09-18T02:28:22.836Z,30.71
2018-09-18T02:29:22.767Z,31.56
2018-09-18T02:30:22.734Z,31.95
2018-09-18T02:31:22.671Z,26.98
2018-09-18T02:32:22.662Z,23.00
2018-09-18T02:33:22.603Z,21.39
2018-09-18T02:34:22.564Z,17.21
2018-09-18T02:35:22.515Z,17.11
2018-09-18T02:36:22.487Z,18.92
2018-09-18T02:37:22.447Z,19.49
2018-09-18T02:38:22.403Z,19.78
2018-09-18T02:39:22.358Z,20.44
2018-09-18T02:40:22.342Z,21.30
2018-09-18T02:41:22.284Z,19.59
2018-09-18T02:42:22.296Z,18.73
2018-09-18T02:43:22.215Z,19.39
2018-09-18T02:44:22.187Z,17.02
2018-09-18T02:45:22.125Z,17.30
2018-09-18T02:46:22.105Z,16.45
2018-09-18T02:47:22.045Z,16.25
2018-09-18T02:48:22.046Z,16.16
2018-09-18T02:49:21.968Z,17.78
2018-09-18T02:50:21.923Z,16.35
2018-09-18T02:51:21.894Z,17.40
2018-09-18T02:52:21.875Z,18.16
2018-09-18T02:53:21.805Z,18.44
2018-09-18T02:54:21.768Z,20.25
2018-09-18T02:55:21.756Z,22.63
2018-09-18T02:56:21.700Z,23.39
2018-09-18T02:57:21.644Z,23.86
2018-09-18T02:58:21.610Z,22.44
2018-09-18T02:59:21.584Z,21.30
2018-09-18T03:00:21.533Z,21.30
2018-09-18T03:01:21.508Z,22.44
2018-09-18T03:02:21.478Z,18.44
2018-09-18T03:03:21.450Z,19.68
2018-09-18T03:04:21.386Z,22.34
2018-09-18T03:05:21.340Z,23.86
2018-09-18T03:06:21.314Z,23.96
2018-09-18T03:07:21.263Z,24.23
2018-09-18T03:08:21.226Z,25.10
2018-09-18T03:09:21.173Z,24.33
2018-09-18T03:10:21.152Z,23.77
2018-09-18T03:11:21.147Z,21.38
2018-09-18T03:12:21.046Z,18.26
2018-09-18T03:13:21.070Z,18.26
2018-09-18T03:14:20.982Z,17.68
2018-09-18T03:15:20.938Z,16.92
2018-09-18T03:16:20.923Z,16.06
2018-09-18T03:17:20.852Z,16.35
2018-09-18T03:18:20.847Z,15.88
2018-09-18T03:19:20.762Z,16.83
2018-09-18T03:20:20.738Z,15.97
2018-09-18T03:21:20.711Z,16.25
2018-09-18T03:22:20.694Z,16.54
2018-09-18T03:23:20.624Z,18.44
2018-09-18T03:24:20.595Z,18.16
2018-09-18T03:25:20.546Z,17.78
2018-09-18T03:26:20.499Z,18.26
2018-09-18T03:27:20.465Z,19.96
2018-09-18T03:28:20.434Z,21.00
2018-09-18T03:29:20.401Z,20.06
2018-09-18T03:30:20.361Z,19.87
2018-09-18T03:31:20.304Z,18.35
2018-09-18T03:32:20.251Z,18.44
2018-09-18T03:33:20.228Z,19.78
2018-09-18T03:34:20.174Z,20.53
2018-09-18T03:35:20.176Z,22.15
2018-09-18T03:36:20.095Z,24.61
2018-09-18T03:37:20.085Z,25.27
2018-09-18T03:38:20.015Z,22.52
2018-09-18T03:39:19.971Z,20.34
2018-09-18T03:40:19.945Z,18.62
2018-09-18T03:41:19.939Z,18.54
2018-09-18T03:42:19.848Z,18.34
2018-09-18T03:43:19.843Z,18.34
2018-09-18T03:44:19.790Z,17.77
2018-09-18T03:45:19.764Z,18.16
2018-09-18T03:46:19.675Z,18.72
2018-09-18T03:47:19.669Z,17.10
2018-09-18T03:48:19.642Z,15.68
2018-09-18T03:49:19.569Z,14.36
2018-09-18T03:50:19.555Z,14.64
2018-09-18T03:51:19.562Z,13.59
2018-09-18T03:52:19.479Z,14.54
2018-09-18T03:53:19.423Z,15.11
2018-09-18T03:54:19.385Z,15.69
2018-09-18T03:55:19.336Z,17.40
2018-09-18T03:56:19.306Z,18.15
2018-09-18T03:57:19.269Z,15.48
2018-09-18T03:58:19.241Z,15.68
2018-09-18T03:59:19.178Z,16.35
2018-09-18T04:00:19.134Z,16.35
2018-09-18T04:01:19.128Z,17.29
2018-09-18T04:02:19.074Z,18.24
2018-09-18T04:03:19.019Z,17.11
2018-09-18T04:04:19.034Z,16.92
2018-09-18T04:05:18.940Z,15.97
2018-09-18T04:06:18.922Z,14.73
2018-09-18T04:07:18.853Z,15.11
2018-09-18T04:08:18.839Z,15.87
2018-09-18T04:09:18.787Z,18.43
2018-09-18T04:10:18.758Z,19.57
2018-09-18T04:11:18.724Z,22.24
2018-09-18T04:12:18.671Z,20.53
2018-09-18T04:13:18.635Z,18.43
2018-09-18T04:14:18.575Z,18.43
2018-09-18T04:15:18.538Z,18.34
2018-09-18T04:16:18.501Z,17.68
2018-09-18T04:17:18.502Z,16.82
2018-09-18T04:18:18.434Z,15.58
2018-09-18T04:19:18.391Z,14.63
2018-09-18T04:20:18.335Z,15.39
2018-09-18T04:21:18.336Z,15.68
2018-09-18T04:22:18.288Z,17.48
2018-09-18T04:23:18.254Z,17.29
2018-09-18T04:24:18.186Z,16.35
2018-09-18T04:25:18.183Z,16.15
2018-09-18T04:26:18.117Z,15.39
2018-09-18T04:27:18.072Z,15.30
2018-09-18T04:28:18.015Z,15.01
2018-09-18T04:29:17.995Z,13.40
2018-09-18T04:30:17.944Z,13.40
2018-09-18T04:31:17.928Z,15.20
2018-09-18T04:32:17.906Z,15.48
2018-09-18T04:33:17.826Z,15.87
2018-09-18T04:34:17.783Z,16.25
2018-09-18T04:35:17.744Z,18.53
2018-09-18T04:36:17.715Z,13.02
2018-09-18T04:37:17.666Z,9.89
2018-09-18T04:38:17.756Z,10.83
2018-09-18T04:39:17.579Z,11.50
2018-09-18T04:40:17.545Z,12.16
2018-09-18T04:41:17.518Z,12.26
2018-09-18T04:42:17.455Z,12.54
2018-09-18T04:43:17.459Z,13.21
2018-09-18T04:44:17.382Z,13.21
2018-09-18T04:45:17.401Z,13.96
2018-09-18T04:46:17.293Z,15.20
2018-09-18T04:47:17.293Z,15.20
2018-09-18T04:48:17.237Z,15.01
2018-09-18T04:49:17.199Z,15.48
2018-09-18T04:50:17.167Z,15.30
2018-09-18T04:51:17.112Z,13.87
2018-09-18T04:52:17.075Z,12.45
2018-09-18T04:53:17.015Z,13.11
2018-09-18T04:54:16.994Z,13.78
2018-09-18T04:55:17.098Z,13.02
2018-09-18T04:56:16.937Z,13.11
2018-09-18T04:57:16.860Z,13.96
2018-09-18T04:58:16.881Z,12.82
2018-09-18T04:59:16.818Z,13.21
2018-09-18T05:00:16.803Z,13.30
2018-09-18T05:01:16.728Z,12.45
2018-09-18T05:02:16.684Z,12.54
2018-09-18T05:03:16.629Z,12.92
2018-09-18T05:04:16.631Z,14.06
2018-09-18T05:05:16.552Z,14.06
2018-09-18T05:06:16.525Z,13.96
2018-09-18T05:07:16.633Z,15.20
2018-09-18T05:08:16.419Z,15.20
2018-09-18T05:09:16.424Z,15.01
2018-09-18T05:10:16.376Z,13.96
2018-09-18T05:11:16.344Z,13.68
2018-09-18T05:12:16.263Z,14.73
2018-09-18T05:13:16.231Z,15.20
2018-09-18T05:14:16.188Z,14.54
2018-09-18T05:15:16.161Z,13.40
2018-09-18T05:16:16.109Z,13.30
2018-09-18T05:17:16.091Z,13.50
2018-09-18T05:18:16.037Z,12.74
2018-09-18T05:19:15.990Z,12.93
2018-09-18T05:20:15.964Z,13.21
2018-09-18T05:21:15.889Z,14.26
2018-09-18T05:22:15.868Z,14.64
2018-09-18T05:23:15.830Z,12.84
2018-09-18T05:24:15.791Z,12.84
2018-09-18T05:25:15.755Z,13.02
2018-09-18T05:26:15.727Z,13.02
2018-09-18T05:27:15.667Z,13.69
2018-09-18T05:28:15.710Z,13.21
2018-09-18T05:29:15.578Z,13.21
2018-09-18T05:30:15.585Z,13.78
2018-09-18T05:31:15.530Z,14.07
2018-09-18T05:32:15.455Z,14.54
2018-09-18T05:33:15.447Z,15.50
2018-09-18T05:34:15.404Z,14.64
2018-09-18T05:35:15.388Z,14.73
2018-09-18T05:36:15.288Z,15.21
2018-09-18T05:37:15.290Z,15.69
2018-09-18T05:38:15.211Z,16.25
2018-09-18T05:39:15.203Z,15.88
2018-09-18T05:40:15.167Z,15.40
2018-09-18T05:41:15.123Z,15.31
2018-09-18T05:42:15.116Z,13.89
2018-09-18T05:43:15.144Z,13.41
2018-09-18T05:44:16.119Z,13.22
2018-09-18T05:45:15.031Z,13.32
2018-09-18T05:46:14.901Z,13.12
2018-09-18T05:47:14.852Z,13.98
2018-09-18T05:48:14.923Z,13.89
2018-09-18T05:49:14.838Z,13.89
2018-09-18T05:50:14.734Z,14.07
2018-09-18T05:51:14.693Z,15.22
2018-09-18T05:52:14.668Z,14.74
2018-09-18T05:53:14.638Z,15.31
2018-09-18T05:54:14.585Z,15.03
2018-09-18T05:55:14.535Z,15.60
2018-09-18T05:56:14.500Z,15.88
2018-09-18T05:57:14.512Z,16.46
2018-09-18T05:58:14.444Z,17.12
2018-09-18T05:59:14.409Z,15.51
2018-09-18T06:00:14.363Z,14.65
2018-09-18T06:01:14.325Z,14.47
2018-09-18T06:02:14.298Z,15.42
2018-09-18T06:03:14.233Z,14.65
2018-09-18T06:04:14.212Z,13.42
2018-09-18T06:05:14.141Z,13.13
2018-09-18T06:06:14.115Z,12.94
2018-09-18T06:07:14.069Z,13.33
2018-09-18T06:08:14.062Z,14.09
2018-09-18T06:09:14.009Z,14.66
2018-09-18T06:10:13.971Z,15.33
2018-09-18T06:11:13.898Z,15.52
2018-09-18T06:12:13.877Z,16.95
2018-09-18T06:13:13.824Z,17.33
2018-09-18T06:14:13.812Z,18.29
2018-09-18T06:15:13.771Z,18.86
2018-09-18T06:16:13.734Z,20.48
2018-09-18T06:17:13.683Z,21.62
2018-09-18T06:18:13.647Z,22.67
2018-09-18T06:19:13.664Z,22.39
2018-09-18T06:20:13.559Z,22.48
2018-09-18T06:21:13.542Z,23.53
2018-09-18T06:22:13.469Z,23.73
2018-09-18T06:23:13.437Z,24.59
2018-09-18T06:24:13.429Z,25.26
2018-09-18T06:25:13.375Z,25.54
2018-09-18T06:26:13.389Z,26.97
2018-09-18T06:27:13.308Z,27.92
2018-09-18T06:28:13.261Z,29.83
2018-09-18T06:29:13.210Z,28.97
2018-09-18T06:30:13.188Z,30.99
2018-09-18T06:31:13.170Z,30.99
2018-09-18T06:32:13.113Z,30.04
2018-09-18T06:33:13.096Z,31.76
2018-09-18T06:34:13.027Z,31.66
2018-09-18T06:35:12.983Z,32.15
2018-09-18T06:36:12.944Z,41.03
2018-09-18T06:37:12.901Z,43.13
2018-09-18T06:38:12.884Z,43.43
2018-09-18T06:39:12.882Z,43.33
2018-09-18T06:40:12.785Z,46.68
2018-09-18T06:41:12.769Z,52.69
2018-09-18T06:42:12.769Z,53.77
2018-09-18T06:43:12.679Z,61.09
2018-09-18T06:44:12.650Z,83.40
2018-09-18T06:45:12.604Z,99.33
2018-09-18T06:46:12.572Z,99.99
2018-09-18T06:47:12.527Z,99.99
2018-09-18T06:48:12.509Z,99.99
2018-09-18T06:49:12.466Z,99.99
2018-09-18T06:50:12.426Z,99.99
2018-09-18T06:51:12.403Z,99.99
2018-09-18T06:52:12.343Z,99.99
2018-09-18T06:53:12.318Z,99.99
2018-09-18T06:54:12.341Z,99.99
2018-09-18T06:55:12.248Z,99.99
2018-09-18T06:56:12.220Z,99.99
2018-09-18T06:57:12.170Z,99.99
2018-09-18T06:58:12.148Z,99.99
2018-09-18T06:59:12.118Z,99.99
2018-09-18T07:00:12.114Z,99.99
2018-09-18T07:01:12.057Z,99.99
2018-09-18T07:02:12.012Z,99.99
2018-09-18T07:03:11.975Z,99.99
2018-09-18T07:04:11.955Z,99.99
2018-09-18T07:05:11.930Z,99.99
2018-09-18T07:06:11.888Z,99.99
2018-09-18T07:07:11.858Z,99.99
2018-09-18T07:08:11.818Z,99.99
2018-09-18T07:09:11.802Z,99.99
2018-09-18T07:10:11.782Z,99.99
2018-09-18T07:11:11.754Z,95.98
2018-09-18T07:12:11.711Z,90.61
2018-09-18T07:13:11.691Z,90.65
2018-09-18T07:14:11.667Z,85.91
2018-09-18T07:15:11.628Z,87.55
2018-09-18T07:16:11.602Z,84.41
2018-09-18T07:17:11.567Z,85.28
2018-09-18T07:18:11.625Z,84.56
2018-09-18T07:19:11.529Z,84.89
2018-09-18T07:20:11.487Z,83.09
2018-09-18T07:21:11.460Z,83.63
2018-09-18T07:22:11.430Z,85.57
2018-09-18T07:23:11.405Z,84.01
2018-09-18T07:24:11.532Z,84.41
2018-09-18T07:25:11.342Z,84.46
2018-09-18T07:26:11.320Z,87.85
2018-09-18T07:27:11.294Z,87.36
2018-09-18T07:28:11.287Z,87.51
2018-09-18T07:29:11.248Z,91.77
2018-09-18T07:30:11.221Z,93.56
2018-09-18T07:31:11.172Z,95.49
2018-09-18T07:32:11.161Z,97.42
2018-09-18T07:33:11.158Z,99.99
2018-09-18T07:34:11.109Z,99.99
2018-09-18T07:35:11.099Z,99.99
2018-09-18T07:36:11.091Z,99.99
2018-09-18T07:37:11.029Z,99.99
2018-09-18T07:38:10.999Z,99.99
2018-09-18T07:39:10.981Z,99.99
2018-09-18T07:40:10.953Z,99.99
2018-09-18T07:41:11.096Z,99.99
2018-09-18T07:42:10.871Z,99.99
2018-09-18T07:43:10.856Z,99.99
2018-09-18T07:44:10.869Z,99.99
2018-09-18T07:45:10.820Z,99.99
2018-09-18T07:46:10.797Z,99.99
2018-09-18T07:47:10.760Z,99.99
2018-09-18T07:48:10.711Z,99.99
2018-09-18T07:49:10.679Z,99.99
2018-09-18T07:50:10.655Z,99.99
2018-09-18T07:51:10.632Z,99.99
2018-09-18T07:52:10.658Z,99.99
2018-09-18T07:53:10.584Z,99.99
2018-09-18T07:54:10.612Z,99.99
2018-09-18T07:55:10.518Z,99.99
2018-09-18T07:56:10.522Z,99.99
2018-09-18T07:57:10.482Z,99.99
2018-09-18T07:58:10.450Z,99.99
2018-09-18T07:59:10.413Z,99.99
2018-09-18T08:00:10.372Z,99.99
2018-09-18T08:01:10.395Z,99.99
2018-09-18T08:02:10.334Z,99.99
2018-09-18T08:03:10.388Z,99.99
2018-09-18T08:04:10.258Z,99.99
2018-09-18T08:05:10.220Z,99.99
2018-09-18T08:06:10.216Z,99.99
2018-09-18T08:07:10.202Z,99.99
2018-09-18T08:08:10.153Z,99.99
2018-09-18T08:09:10.100Z,99.99
2018-09-18T08:10:10.077Z,99.99
2018-09-18T08:11:10.044Z,99.99
2018-09-18T08:12:10.052Z,99.99
2018-09-18T08:13:10.017Z,99.99
2018-09-18T08:14:09.964Z,99.99
2018-09-18T08:15:09.986Z,99.99
2018-09-18T08:16:09.943Z,99.99
2018-09-18T08:17:09.896Z,99.99
2018-09-18T08:18:09.881Z,99.99
2018-09-18T08:19:09.854Z,99.99
2018-09-18T08:20:09.813Z,99.99
2018-09-18T08:21:09.756Z,99.99
2018-09-18T08:22:09.800Z,99.99
2018-09-18T08:23:09.727Z,99.99
2018-09-18T08:24:09.671Z,99.02
2018-09-18T08:25:09.711Z,99.99
2018-09-18T08:26:09.632Z,92.63
2018-09-18T08:27:09.590Z,91.03
2018-09-18T08:28:09.542Z,96.65
2018-09-18T08:29:09.525Z,92.87
2018-09-18T08:30:09.479Z,95.63
2018-09-18T08:31:09.466Z,87.49
2018-09-18T08:32:09.430Z,85.85
2018-09-18T08:33:09.401Z,86.23
2018-09-18T08:34:09.390Z,85.27
2018-09-18T08:35:09.386Z,89.33
2018-09-18T08:36:09.315Z,85.17
2018-09-18T08:37:09.292Z,87.78
2018-09-18T08:38:09.291Z,86.27
2018-09-18T08:39:09.267Z,84.53
2018-09-18T08:40:09.402Z,84.14
2018-09-18T08:41:09.163Z,85.69
2018-09-18T08:42:09.160Z,82.98
2018-09-18T08:43:09.119Z,82.63
2018-09-18T08:44:09.091Z,82.53
2018-09-18T08:45:09.056Z,80.73
2018-09-18T08:46:09.035Z,78.69
2018-09-18T08:47:09.033Z,78.34
2018-09-18T08:48:08.981Z,76.98
2018-09-18T08:49:08.984Z,74.92
2018-09-18T08:50:08.944Z,75.05
2018-09-18T08:51:08.893Z,73.63
2018-09-18T08:52:08.969Z,69.23
2018-09-18T08:53:08.880Z,69.46
2018-09-18T08:54:08.870Z,67.47
2018-09-18T08:55:08.794Z,64.00
2018-09-18T08:56:08.805Z,63.80
2018-09-18T08:57:08.757Z,63.09
2018-09-18T08:58:08.738Z,65.63
2018-09-18T08:59:08.719Z,64.72
2018-09-18T09:00:08.670Z,66.44
2018-09-18T09:01:08.685Z,66.60
2018-09-18T09:02:08.623Z,68.55
2018-09-18T09:03:08.663Z,67.12
2018-09-18T09:04:08.619Z,67.80
2018-09-18T09:05:08.616Z,67.12
2018-09-18T09:06:08.595Z,65.53
2018-09-18T09:07:08.505Z,65.63
2018-09-18T09:08:08.629Z,66.83
2018-09-18T09:09:08.455Z,65.30
2018-09-18T09:10:08.521Z,63.09
2018-09-18T09:11:08.434Z,63.57
2018-09-18T09:12:08.385Z,63.54
2018-09-18T09:13:08.401Z,61.13
2018-09-18T09:14:08.400Z,60.47
2018-09-18T09:15:08.403Z,59.99
2018-09-18T09:16:08.337Z,58.75
2018-09-18T09:17:08.269Z,58.28
2018-09-18T09:18:08.402Z,57.79
2018-09-18T09:19:08.240Z,57.99
2018-09-18T09:20:08.238Z,57.45
2018-09-18T09:21:08.220Z,58.91
2018-09-18T09:22:08.268Z,59.20
2018-09-18T09:23:08.354Z,58.72
2018-09-18T09:24:08.124Z,57.18
2018-09-18T09:25:08.100Z,58.45
2018-09-18T09:26:08.080Z,57.50
2018-09-18T09:27:08.082Z,56.56
2018-09-18T09:28:08.047Z,56.10
2018-09-18T09:29:08.015Z,58.06
2018-09-18T09:30:08.079Z,57.28
2018-09-18T09:31:08.051Z,57.34
2018-09-18T09:32:08.099Z,54.74
2018-09-18T09:33:07.945Z,55.08
2018-09-18T09:34:07.908Z,54.33
2018-09-18T09:35:07.909Z,52.50
2018-09-18T09:36:07.907Z,52.69
2018-09-18T09:37:07.973Z,52.72
2018-09-18T09:38:07.861Z,51.34
2018-09-18T09:39:07.851Z,50.49
2018-09-18T09:40:07.787Z,49.11
2018-09-18T09:41:07.777Z,50.90
2018-09-18T09:42:07.742Z,49.85
2018-09-18T09:43:07.741Z,48.55
2018-09-18T09:44:07.740Z,48.25
2018-09-18T09:45:07.792Z,47.17
2018-09-18T09:46:07.690Z,47.27
2018-09-18T09:47:07.672Z,47.37
2018-09-18T09:48:07.652Z,46.98
2018-09-18T09:49:07.634Z,46.81
2018-09-18T09:50:07.620Z,47.37
2018-09-18T09:51:07.649Z,47.01
2018-09-18T09:52:07.590Z,47.13
2018-09-18T09:53:07.552Z,47.84
2018-09-18T09:54:07.543Z,47.25
2018-09-18T09:55:07.524Z,45.53
2018-09-18T09:56:07.515Z,45.43
2018-09-18T09:57:07.490Z,44.16
2018-09-18T09:58:07.472Z,43.98
2018-09-18T09:59:07.453Z,45.75
2018-09-18T10:00:07.447Z,44.57
2018-09-18T10:01:07.416Z,45.16
2018-09-18T10:02:07.414Z,44.84
2018-09-18T10:03:07.393Z,44.06
2018-09-18T10:04:07.370Z,43.49
2018-09-18T10:05:08.061Z,44.32
2018-09-18T10:06:07.334Z,42.24
2018-09-18T10:07:07.314Z,42.65
2018-09-18T10:08:07.293Z,43.55
2018-09-18T10:09:07.281Z,43.35
2018-09-18T10:10:07.272Z,43.84
2018-09-18T10:11:07.310Z,43.65
2018-09-18T10:12:07.252Z,43.47
2018-09-18T10:13:07.225Z,43.47
2018-09-18T10:14:07.225Z,44.23
2018-09-18T10:15:07.198Z,44.23
2018-09-18T10:16:07.170Z,44.73
2018-09-18T10:17:07.143Z,43.65
2018-09-18T10:18:07.197Z,43.47
2018-09-18T10:19:07.159Z,43.98
2018-09-18T10:20:07.094Z,42.61
2018-09-18T10:21:07.109Z,42.65
2018-09-18T10:22:07.070Z,42.04
2018-09-18T10:23:07.114Z,42.63
2018-09-18T10:24:07.077Z,41.96
2018-09-18T10:25:07.037Z,42.65
2018-09-18T10:26:07.119Z,41.94
2018-09-18T10:27:07.123Z,42.88
2018-09-18T10:28:07.003Z,43.59
2018-09-18T10:29:06.983Z,43.49
2018-09-18T10:30:06.940Z,43.63
2018-09-18T10:31:06.941Z,42.47
2018-09-18T10:32:06.921Z,41.29
2018-09-18T10:33:06.890Z,42.08
2018-09-18T10:34:06.943Z,41.37
2018-09-18T10:35:06.935Z,42.10
2018-09-18T10:36:06.898Z,42.27
2018-09-18T10:37:06.811Z,42.08
2018-09-18T10:38:06.865Z,42.57
2018-09-18T10:39:06.819Z,42.94
2018-09-18T10:40:06.792Z,42.57
2018-09-18T10:41:06.905Z,42.39
2018-09-18T10:42:06.827Z,42.61
2018-09-18T10:43:06.741Z,43.45
2018-09-18T10:44:06.817Z,44.55
2018-09-18T10:45:06.711Z,42.21
2018-09-18T10:46:06.698Z,41.71
2018-09-18T10:47:06.686Z,42.79
2018-09-18T10:48:06.659Z,43.10
2018-09-18T10:49:06.641Z,41.27
2018-09-18T10:50:06.611Z,41.37
2018-09-18T10:51:06.624Z,41.00
2018-09-18T10:52:06.570Z,41.84
2018-09-18T10:53:06.559Z,42.61
2018-09-18T10:54:06.548Z,42.32
2018-09-18T10:55:06.520Z,42.58
2018-09-18T10:56:06.500Z,43.59
2018-09-18T10:57:06.494Z,42.61
2018-09-18T10:58:06.469Z,42.11
2018-09-18T10:59:06.443Z,41.03
2018-09-18T11:00:06.437Z,41.92
2018-09-18T11:01:06.422Z,41.82
2018-09-18T11:02:06.447Z,42.19
2018-09-18T11:03:06.391Z,41.80
2018-09-18T11:04:06.362Z,40.63
2018-09-18T11:05:06.342Z,41.90
2018-09-18T11:06:06.347Z,42.10
2018-09-18T11:07:06.390Z,43.39
2018-09-18T11:08:06.314Z,41.14
2018-09-18T11:09:06.287Z,39.47
2018-09-18T11:10:06.255Z,38.37
2018-09-18T11:11:06.299Z,38.74
2018-09-18T11:12:06.241Z,40.63
2018-09-18T11:13:06.233Z,41.21
2018-09-18T11:14:07.212Z,39.45
2018-09-18T11:15:06.215Z,40.82
2018-09-18T11:16:06.190Z,41.02
2018-09-18T11:17:06.204Z,42.11
2018-09-18T11:18:06.122Z,41.80
2018-09-18T11:19:06.219Z,42.39
2018-09-18T11:20:06.108Z,42.00
2018-09-18T11:21:06.119Z,42.58
2018-09-18T11:22:06.077Z,41.06
2018-09-18T11:23:06.062Z,41.92
2018-09-18T11:24:06.210Z,42.39
2018-09-18T11:25:06.036Z,42.57
2018-09-18T11:26:06.068Z,43.57
2018-09-18T11:27:05.985Z,43.08
2018-09-18T11:28:05.961Z,42.37
2018-09-18T11:29:05.935Z,42.33
2018-09-18T11:30:05.945Z,43.60
2018-09-18T11:31:05.974Z,43.80
2018-09-18T11:32:05.906Z,43.58
2018-09-18T11:33:05.936Z,43.46
2018-09-18T11:34:05.891Z,43.88
2018-09-18T11:35:05.887Z,43.68
2018-09-18T11:36:05.815Z,43.60
2018-09-18T11:37:05.821Z,43.43
2018-09-18T11:38:05.797Z,43.72
2018-09-18T11:39:05.773Z,43.74
2018-09-18T11:40:05.752Z,42.08
2018-09-18T11:41:05.753Z,42.76
2018-09-18T11:42:05.720Z,43.45
2018-09-18T11:43:05.700Z,43.57
2018-09-18T11:44:05.675Z,43.13
2018-09-18T11:45:05.687Z,43.72
2018-09-18T11:46:05.792Z,43.80
2018-09-18T11:47:05.660Z,44.48
2018-09-18T11:48:05.685Z,44.68
2018-09-18T11:49:05.617Z,44.66
2018-09-18T11:50:05.622Z,44.58
2018-09-18T11:51:05.549Z,45.39
2018-09-18T11:52:05.616Z,45.17
2018-09-18T11:53:05.568Z,44.48
2018-09-18T11:54:05.569Z,44.68
2018-09-18T11:55:05.555Z,45.37
2018-09-18T11:56:05.456Z,45.07
2018-09-18T11:57:05.461Z,44.48
2018-09-18T11:58:05.428Z,44.51
2018-09-18T11:59:05.398Z,44.51
2018-09-18T12:00:05.402Z,44.73
2018-09-18T12:01:05.376Z,43.94
2018-09-18T12:02:05.410Z,42.86
2018-09-18T12:03:05.387Z,41.00
2018-09-18T12:04:05.335Z,39.69
2018-09-18T12:05:05.405Z,41.92
2018-09-18T12:06:05.279Z,41.27
2018-09-18T12:07:05.298Z,41.96
2018-09-18T12:08:05.258Z,42.32
2018-09-18T12:09:05.257Z,42.64
2018-09-18T12:10:05.233Z,42.66
2018-09-18T12:11:05.206Z,42.36
2018-09-18T12:12:05.187Z,42.35
2018-09-18T12:13:05.157Z,42.35
2018-09-18T12:14:05.144Z,42.54
2018-09-18T12:15:05.119Z,45.20
2018-09-18T12:16:05.107Z,41.99
2018-09-18T12:17:05.127Z,40.60
2018-09-18T12:18:05.071Z,41.78
2018-09-18T12:19:05.044Z,42.78
2018-09-18T12:20:05.026Z,42.02
2018-09-18T12:21:05.026Z,41.92
2018-09-18T12:22:04.999Z,39.98
2018-09-18T12:23:04.991Z,39.96
2018-09-18T12:24:04.952Z,40.66
2018-09-18T12:25:04.946Z,41.03
2018-09-18T12:26:04.929Z,41.13
2018-09-18T12:27:04.928Z,40.55
2018-09-18T12:28:04.897Z,42.07
2018-09-18T12:29:04.845Z,41.00
2018-09-18T12:30:04.837Z,42.35
2018-09-18T12:31:04.805Z,42.15
2018-09-18T12:32:04.792Z,42.35
2018-09-18T12:33:04.765Z,43.34
2018-09-18T12:34:04.780Z,42.27
2018-09-18T12:35:04.739Z,41.97
2018-09-18T12:36:04.709Z,40.90
2018-09-18T12:37:04.687Z,41.97
2018-09-18T12:38:04.725Z,42.07
2018-09-18T12:39:04.707Z,41.39
2018-09-18T12:40:04.636Z,40.92
2018-09-18T12:41:04.620Z,40.92
2018-09-18T12:42:04.758Z,40.90
2018-09-18T12:43:04.585Z,40.60
2018-09-18T12:44:04.559Z,42.27
2018-09-18T12:45:04.550Z,42.17
2018-09-18T12:46:04.515Z,42.46
2018-09-18T12:47:04.500Z,41.96
2018-09-18T12:48:04.546Z,42.32
2018-09-18T12:49:04.581Z,43.40
2018-09-18T12:50:04.843Z,43.79
2018-09-18T12:51:04.449Z,42.22
2018-09-18T12:52:04.403Z,42.64